createdAt,value
2023-09-29T00:00:16.167Z,19.19
2023-09-29T00:05:20.429Z,18.64
2023-09-29T00:10:24.382Z,19.08
2023-09-29T00:15:29.285Z,18.94
2023-09-29T00:20:32.769Z,19.15
2023-09-29T00:25:36.242Z,18.86
2023-09-29T00:30:41.116Z,19.08
2023-09-29T00:35:44.770Z,19.02
2023-09-29T00:40:48.403Z,18.87
2023-09-29T00:45:53.428Z,18.72
2023-09-29T00:50:57.029Z,18.88
2023-09-29T00:56:00.576Z,18.48
2023-09-29T01:01:07.648Z,18.79
2023-09-29T01:06:11.453Z,18.37
2023-09-29T01:11:15.038Z,18.31
2023-09-29T01:16:21.240Z,18.60
2023-09-29T01:21:24.984Z,18.61
2023-09-29T01:26:30.414Z,18.49
2023-09-29T01:31:35.545Z,18.48
2023-09-29T01:36:40.440Z,18.08
2023-09-29T01:41:45.265Z,18.39
2023-09-29T01:46:50.484Z,17.98
2023-09-29T01:51:54.781Z,18.23
2023-09-29T01:57:02.410Z,18.10
2023-09-29T02:02:06.786Z,17.73
2023-09-29T02:07:11.184Z,18.02
2023-09-29T02:12:16.619Z,17.98
2023-09-29T02:17:20.073Z,17.73
2023-09-29T02:22:23.503Z,17.05
2023-09-29T02:27:30.201Z,16.81
2023-09-29T02:32:35.679Z,17.34
2023-09-29T02:37:39.568Z,17.67
2023-09-29T02:42:45.530Z,17.67
2023-09-29T02:47:49.676Z,16.85
2023-09-29T02:52:53.534Z,17.45
2023-09-29T02:57:59.257Z,17.54
2023-09-29T03:03:04.910Z,17.32
2023-09-29T03:08:08.665Z,17.47
2023-09-29T03:13:14.107Z,16.09
2023-09-29T03:18:17.721Z,17.46
2023-09-29T03:23:21.248Z,17.46
2023-09-29T03:28:26.842Z,16.45
2023-09-29T03:33:30.854Z,17.41
2023-09-29T03:38:34.442Z,16.00
2023-09-29T03:43:40.056Z,16.72
2023-09-29T03:48:47.667Z,17.20
2023-09-29T03:53:51.423Z,17.08
2023-09-29T03:58:56.824Z,17.18
2023-09-29T04:04:02.655Z,17.11
2023-09-29T04:09:07.071Z,17.14
2023-09-29T04:14:23.887Z,17.05
2023-09-29T04:19:36.481Z,17.24
2023-09-29T04:24:41.508Z,17.41
2023-09-29T04:29:47.463Z,17.44
2023-09-29T04:34:50.974Z,17.07
2023-09-29T04:39:57.102Z,17.44
2023-09-29T04:45:02.214Z,17.49
2023-09-29T04:50:07.138Z,17.50
2023-09-29T04:55:11.569Z,16.34
2023-09-29T05:00:17.718Z,17.58
2023-09-29T05:05:21.181Z,17.39
2023-09-29T05:10:25.583Z,17.54
2023-09-29T05:15:30.591Z,17.55
2023-09-29T05:20:34.673Z,17.57
2023-09-29T05:25:38.154Z,16.87
2023-09-29T05:30:54.393Z,17.32
2023-09-29T05:35:58.144Z,17.50
2023-09-29T05:41:01.618Z,17.69
2023-09-29T05:46:07.009Z,17.75
2023-09-29T05:51:10.634Z,17.48
2023-09-29T05:56:14.399Z,17.54
2023-09-29T06:01:19.375Z,17.71
2023-09-29T06:06:22.931Z,17.78
2023-09-29T06:11:26.414Z,17.94
2023-09-29T06:16:31.303Z,18.03
2023-09-29T06:21:35.845Z,18.07
2023-09-29T06:26:39.284Z,18.09
2023-09-29T06:31:44.187Z,18.21
2023-09-29T06:36:47.701Z,18.05
2023-09-29T06:41:51.221Z,18.33
2023-09-29T06:46:56.309Z,18.42
2023-09-29T06:51:59.795Z,18.47
2023-09-29T06:57:03.364Z,18.54
2023-09-29T07:02:08.547Z,17.81
2023-09-29T07:07:12.019Z,18.77
2023-09-29T07:12:15.632Z,18.38
2023-09-29T07:17:20.535Z,19.00
2023-09-29T07:22:24.063Z,18.63
2023-09-29T07:27:29.131Z,18.32
2023-09-29T07:32:34.045Z,19.14
2023-09-29T07:37:39.363Z,19.36
2023-09-29T07:42:43.007Z,18.83
2023-09-29T07:47:48.431Z,18.82
2023-09-29T07:52:52.214Z,19.69
2023-09-29T07:57:55.816Z,19.01
2023-09-29T08:03:01.371Z,20.01
2023-09-29T08:08:05.693Z,19.98
2023-09-29T08:13:09.479Z,20.28
2023-09-29T08:18:15.155Z,20.24
2023-09-29T08:23:18.775Z,20.57
2023-09-29T08:28:22.659Z,19.96
2023-09-29T08:38:36.443Z,20.53
2023-09-29T08:43:46.368Z,20.42
2023-09-29T08:48:58.972Z,20.76
2023-09-29T08:54:04.778Z,21.31
2023-09-29T08:59:08.961Z,21.64
2023-09-29T09:04:14.289Z,21.01
2023-09-29T09:09:24.726Z,20.70
2023-09-29T09:14:28.444Z,22.39
2023-09-29T09:19:34.205Z,21.46
2023-09-29T09:24:37.860Z,22.33
2023-09-29T09:29:42.839Z,23.20
2023-09-29T09:34:50.315Z,22.11
2023-09-29T09:39:56.789Z,23.70
2023-09-29T09:50:32.153Z,24.25
2023-09-29T09:55:40.913Z,24.51
2023-09-29T10:00:50.340Z,23.69
2023-09-29T10:05:57.328Z,24.51
2023-09-29T10:11:12.942Z,24.70
2023-09-29T10:16:23.535Z,24.03
2023-09-29T10:21:32.060Z,25.49
2023-09-29T10:26:44.936Z,25.77
2023-09-29T10:31:51.338Z,25.92
2023-09-29T10:36:58.437Z,26.17
2023-09-29T10:42:13.910Z,26.08
2023-09-29T10:47:18.602Z,26.69
2023-09-29T10:52:24.522Z,26.45
2023-09-29T10:57:29.822Z,26.68
2023-09-29T11:02:35.538Z,27.19
2023-09-29T11:07:52.038Z,27.71
2023-09-29T11:12:55.564Z,27.85
2023-09-29T11:17:59.353Z,28.14
2023-09-29T11:23:12.884Z,28.41
2023-09-29T11:28:17.163Z,28.56
2023-09-29T11:33:21.227Z,28.33
2023-09-29T11:38:26.258Z,28.91
2023-09-29T11:43:29.848Z,28.64
2023-09-29T11:48:33.603Z,28.45
2023-09-29T11:53:40.030Z,27.76
2023-09-29T11:58:43.603Z,27.57
2023-09-29T12:03:47.376Z,28.36
2023-09-29T12:08:52.569Z,27.70
2023-09-29T12:13:56.553Z,28.12
2023-09-29T12:19:00.193Z,28.19
2023-09-29T12:24:05.985Z,27.99
2023-09-29T12:29:09.638Z,28.05
2023-09-29T12:34:15.798Z,28.12
2023-09-29T12:39:20.934Z,28.42
2023-09-29T12:44:25.211Z,27.94
2023-09-29T12:49:28.962Z,28.53
2023-09-29T12:54:33.999Z,28.38
2023-09-29T12:59:37.919Z,27.54
2023-09-29T13:04:43.055Z,28.16
2023-09-29T13:09:48.334Z,28.41
2023-09-29T13:14:53.114Z,27.87
2023-09-29T13:19:56.707Z,27.75
2023-09-29T13:25:01.532Z,28.15
2023-09-29T13:30:06.406Z,28.12
2023-09-29T13:35:10.895Z,27.35
2023-09-29T13:40:17.162Z,27.69
2023-09-29T13:45:21.032Z,28.39
2023-09-29T13:50:24.575Z,28.62
2023-09-29T13:55:29.544Z,28.66
2023-09-29T14:00:33.093Z,28.68
2023-09-29T14:05:40.206Z,28.28
2023-09-29T14:10:45.171Z,28.55
2023-09-29T14:15:48.775Z,28.33
2023-09-29T14:20:53.605Z,28.02
2023-09-29T14:25:58.406Z,27.81
2023-09-29T14:31:03.519Z,27.31
2023-09-29T14:36:08.356Z,27.49
2023-09-29T14:41:14.692Z,26.84
2023-09-29T14:46:18.506Z,26.55
2023-09-29T14:51:22.140Z,26.53
2023-09-29T14:56:27.247Z,26.51
2023-09-29T15:01:30.895Z,26.03
2023-09-29T15:06:34.472Z,25.91
2023-09-29T15:11:39.919Z,24.73
2023-09-29T15:16:43.439Z,25.54
2023-09-29T15:21:47.012Z,25.12
2023-09-29T15:26:51.786Z,24.05
2023-09-29T15:31:55.373Z,24.97
2023-09-29T15:36:58.880Z,24.85
2023-09-29T15:42:03.723Z,24.46
2023-09-29T15:47:07.339Z,23.98
2023-09-29T15:52:12.228Z,24.40
2023-09-29T15:57:17.009Z,23.67
2023-09-29T16:02:26.735Z,23.79
2023-09-29T16:07:32.741Z,23.76
2023-09-29T16:12:37.725Z,24.04
2023-09-29T16:17:43.433Z,23.94
2023-09-29T16:23:06.868Z,23.89
2023-09-29T16:28:20.461Z,23.60
2023-09-29T16:33:24.455Z,23.18
2023-09-29T16:38:28.036Z,23.32
2023-09-29T16:43:32.964Z,23.34
2023-09-29T16:48:36.703Z,23.14
2023-09-29T16:53:40.325Z,23.25
2023-09-29T16:58:45.146Z,23.13
2023-09-29T17:03:48.693Z,22.87
2023-09-29T17:08:52.522Z,22.78
2023-09-29T17:13:58.657Z,22.69
2023-09-29T17:19:02.481Z,22.05
2023-09-29T17:24:07.448Z,22.53
2023-09-29T17:29:12.434Z,22.60
2023-09-29T17:34:15.991Z,22.05
2023-09-29T17:39:19.583Z,22.37
2023-09-29T17:44:24.589Z,21.15
2023-09-29T17:49:28.233Z,21.69
2023-09-29T17:54:31.970Z,22.06
2023-09-29T17:59:36.986Z,22.02
2023-09-29T18:04:40.531Z,21.94
2023-09-29T18:09:44.050Z,21.69
2023-09-29T18:14:48.920Z,22.01
2023-09-29T18:19:52.587Z,21.88
2023-09-29T18:24:56.111Z,21.52
2023-09-29T18:30:01.071Z,21.61
2023-09-29T18:35:05.358Z,21.65
2023-09-29T18:40:13.461Z,21.38
2023-09-29T18:45:18.544Z,21.77
2023-09-29T18:50:22.049Z,21.22
2023-09-29T18:55:25.681Z,21.48
2023-09-29T19:00:33.087Z,21.17
2023-09-29T19:05:38.977Z,21.71
2023-09-29T19:10:43.983Z,21.89
2023-09-29T19:15:51.593Z,21.76
2023-09-29T19:20:56.260Z,21.76
2023-09-29T19:26:01.491Z,21.26
2023-09-29T19:31:06.343Z,21.85
2023-09-29T19:36:09.929Z,21.66
2023-09-29T19:41:14.620Z,20.35
2023-09-29T19:46:22.945Z,21.34
2023-09-29T19:51:26.779Z,21.17
2023-09-29T19:56:34.553Z,20.86
2023-09-29T20:01:40.449Z,20.80
2023-09-29T20:06:44.366Z,20.48
2023-09-29T20:11:48.146Z,20.64
2023-09-29T20:16:55.486Z,20.60
2023-09-29T20:21:59.796Z,20.52
2023-09-29T20:27:03.505Z,20.26
2023-09-29T20:32:08.412Z,20.41
2023-09-29T20:37:15.944Z,19.51
2023-09-29T20:42:20.156Z,20.14
2023-09-29T20:47:25.308Z,19.95
2023-09-29T20:52:31.779Z,19.61
2023-09-29T20:57:36.536Z,19.75
2023-09-29T21:02:42.342Z,20.17
2023-09-29T21:07:45.962Z,20.01
2023-09-29T21:12:50.728Z,20.10
2023-09-29T21:17:55.692Z,20.07
2023-09-29T21:22:59.151Z,20.03
2023-09-29T21:28:04.575Z,19.88
2023-09-29T21:33:09.479Z,19.45
2023-09-29T21:38:12.957Z,20.06
2023-09-29T21:43:16.516Z,19.74
2023-09-29T21:48:21.587Z,18.95
2023-09-29T21:53:25.212Z,19.68
2023-09-29T21:58:28.748Z,19.68
2023-09-29T22:03:34.750Z,19.94
2023-09-29T22:08:38.465Z,19.45
2023-09-29T22:13:42.502Z,19.81
2023-09-29T22:18:47.691Z,19.03
2023-09-29T22:23:52.311Z,19.83
2023-09-29T22:28:57.252Z,19.56
2023-09-29T22:34:02.693Z,18.52
2023-09-29T22:39:08.000Z,19.58
2023-09-29T22:44:12.408Z,19.53
2023-09-29T22:49:20.566Z,19.59
2023-09-29T22:54:24.010Z,19.34
2023-09-29T22:59:27.583Z,19.21
2023-09-29T23:04:32.399Z,18.62
2023-09-29T23:09:36.148Z,18.92
2023-09-29T23:14:39.919Z,18.91
2023-09-29T23:19:45.230Z,18.98
2023-09-29T23:24:48.677Z,18.36
2023-09-29T23:29:53.397Z,18.80
2023-09-29T23:34:58.384Z,18.98
2023-09-29T23:40:02.098Z,18.69
2023-09-29T23:45:07.547Z,18.98
2023-09-29T23:50:12.966Z,19.02
2023-09-29T23:55:17.203Z,18.84
